»·PEaware :: N18469 KONT-KPSP

N18469 :: KONT-KPSP

FLIGHT INFORMATION

Flight Status: Arrived
Operator: Privately registered:
United States
More flights under this callsign
Pilot: Jeffrey N. (29870)
Aircraft: CIRRUS VISIONJET
(SF50)
More flights by this aircraft type
Origin: KONT Ontario Intl
United States
Destination: KPSP Palm Springs Intl
United States
More flights between these airports :: More routes between these airports
Route: PDZ V186 NIKKL V64 TRM
File this flight plan on PilotEdge
Remarks:
Altitude:
(Current/Filed)
13,000ft
Speed:
(Current/Filed)
300kts
Departed: 04-Jan-21 06:23 PM
Arrived: 04-Jan-21 06:58 PM
Distance/Time
Traveled:
56nm/0:35
Distance/Time
To Go:
Arrived

Flight Plot

Page will automatically refresh every two minutes.


Map Options




Map Legend


Flown Route
Filed Route
Departure Airport
Arrival Airport
Navaid (VOR, NDB)
Fix

Horizontal Profiles

Position Reports

Time Latitude Longitude Heading Altitude Ground
Speed
04-Jan-21 18:07 34.050544 -117.603917 53 909ft 0kts
04-Jan-21 18:08 34.050544 -117.603917 53 909ft 0kts
04-Jan-21 18:09 34.050544 -117.603917 53 909ft 0kts
04-Jan-21 18:10 34.050544 -117.603917 53 909ft 0kts
04-Jan-21 18:11 34.050544 -117.603917 53 909ft 0kts
04-Jan-21 18:12 34.050544 -117.603917 53 909ft 0kts
04-Jan-21 18:13 34.050544 -117.603917 53 909ft 0kts
04-Jan-21 18:14 34.050544 -117.603917 53 909ft 0kts
04-Jan-21 18:15 34.050544 -117.603917 53 909ft 0kts
04-Jan-21 18:16 34.050544 -117.603917 53 909ft 0kts
04-Jan-21 18:17 34.053130 -117.602905 52 915ft 9kts
04-Jan-21 18:18 34.053801 -117.599626 103 915ft 3kts
04-Jan-21 18:19 34.053843 -117.591390 89 915ft 31kts
04-Jan-21 18:20 34.053983 -117.582699 57 917ft 5kts
04-Jan-21 18:21 34.054028 -117.582634 38 917ft 0kts
04-Jan-21 18:22 34.054923 -117.593736 269 977ft 122kts
04-Jan-21 18:23 34.055667 -117.648100 270 3615ft 174kts
04-Jan-21 18:24 34.045256 -117.716582 212 5376ft 241kts
04-Jan-21 18:25 34.002758 -117.675541 104 8311ft 224kts
04-Jan-21 18:26 33.978181 -117.614493 129 11426ft 197kts
04-Jan-21 18:27 33.942717 -117.564136 130 13004ft 219kts
04-Jan-21 18:28 33.888740 -117.505250 144 13008ft 293kts
04-Jan-21 18:29 33.825001 -117.450773 145 13007ft 245kts
04-Jan-21 18:30 33.769238 -117.404919 144 13000ft 247kts
04-Jan-21 18:31 33.730058 -117.339743 100 13001ft 258kts
04-Jan-21 18:32 33.721011 -117.248706 95 13000ft 284kts
04-Jan-21 18:33 33.713301 -117.154216 95 12999ft 283kts
04-Jan-21 18:34 33.705587 -117.060206 95 12999ft 281kts
04-Jan-21 18:35 33.697850 -116.966867 95 12999ft 281kts
04-Jan-21 18:36 33.690034 -116.873264 95 12999ft 281kts
04-Jan-21 18:37 33.682181 -116.780135 95 12999ft 281kts
04-Jan-21 18:38 33.674217 -116.686568 95 12999ft 281kts
04-Jan-21 18:39 33.666081 -116.591749 95 12550ft 280kts
04-Jan-21 18:40 33.659462 -116.515257 94 11986ft 173kts
04-Jan-21 18:41 33.682943 -116.468864 44 10028ft 185kts
04-Jan-21 18:42 33.720623 -116.424823 43 7581ft 194kts
04-Jan-21 18:43 33.757439 -116.381946 43 7003ft 187kts
04-Jan-21 18:44 33.795365 -116.328804 65 6671ft 239kts
04-Jan-21 18:45 33.794227 -116.249743 115 5994ft 222kts
04-Jan-21 18:46 33.749285 -116.201326 160 4932ft 232kts
04-Jan-21 18:47 33.686776 -116.206655 207 3998ft 221kts
04-Jan-21 18:48 33.648624 -116.259844 250 3998ft 213kts
04-Jan-21 18:49 33.651058 -116.329169 293 3998ft 212kts
04-Jan-21 18:50 33.681943 -116.371640 323 3681ft 135kts
04-Jan-21 18:51 33.710144 -116.397456 322 2908ft 103kts
04-Jan-21 18:52 33.732586 -116.418400 321 2854ft 103kts
04-Jan-21 18:53 33.756306 -116.439955 324 2126ft 103kts
04-Jan-21 18:54 33.778397 -116.460611 322 1550ft 100kts
04-Jan-21 18:55 33.801169 -116.481489 322 989ft 103kts
04-Jan-21 18:56 33.823793 -116.502403 323 414ft 84kts
04-Jan-21 18:57 33.834254 -116.510799 47 439ft 24kts

Navigation Log

Ident Type
Flight plan parsing failed, navigation log unavailable